KOKC

Will Rogers World Airport

Oklahoma City, Oklahoma, USA
KOKC 192320Z 2000/2024 16010KT P6SM SKC FM201500 19014G22KT P6SM SCT040 SCT250
Issued Valid From Valid To
Sep-19 @ 23:20 UTC
(an hour ago)
Sep-20 @ 00:00 UTC
(42 minutes ago)
Sep-21 @ 00:00 UTC
(in 23 hours)
Sep-20 @ 00:00 to Sep-20 @ 15:00
KOKC 192320Z 2000/2024 16010KT P6SM SKC
Wind Visibility Clouds
160° at 10 knots Greater than 6 miles
  • Clear skies
From Sep-20 @ 15:00 to Sep-21 @ 00:00
FM201500 19014G22KT P6SM SCT040 SCT250
Wind Visibility Clouds
190° at 14 knots
 Gusting to 22 knots
Greater than 6 miles
  • Scattered at 4,000' AGL
  • Scattered at 25,000' AGL
KOKC 192320Z 2000/2024 16010KT P6SM SKC FM201500 19014G22KT P6SM SCT040 SCT250
Issued Sep-19 @ 23:20 UTC
(an hour ago)
Valid From Sep-20 @ 00:00 UTC
(42 minutes ago)
Valid To Sep-21 @ 00:00 UTC
(in 23 hours)
Sep-20 @ 00:00 - Sep-20 @ 15:00
Wind Visibility
160° at 10 knots Greater than 6 miles
Clouds
  • Clear skies
From Sep-20 @ 15:00 - Sep-21 @ 00:00
Wind Visibility
190° at 14 knots
 Gusting to 22 knots
Greater than 6 miles
Clouds
  • Scattered at 4,000' AGL
  • Scattered at 25,000' AGL